KBYG/BYG METAR and TAF weather

Enter ICAO airport designator
Station Type Date Time Source
KBYG METAR 2019/06/16 11:53 UTC NOAA

KBYG 161153Z AUTO 34006KT 10SM FEW045 OVC110 12/09 A3007 RMK AO2 SLP138 70004 T01220094 10144 20106 53001


Station Type Date Time Source
KBYG Decoded METAR 2019/06/16 11:53 UTC NOAA

BUFFALO JOHNSON COUNTY AIRPORT , WY, United States (KBYG) 44-23N 106-43W 1497M
Jun 16, 2019 - 07:53 AM EDT / 2019.06.16 1153 UTC
Wind: from the NNW (340 degrees) at 7 MPH (6 KT):0
Visibility: 10 mile(s):0
Sky conditions: overcast
Temperature: 54.0 F (12.2 C)
Dew Point: 48.9 F (9.4 C)
Relative Humidity: 82%
Pressure (altimeter): 30.07 in. Hg (1018 hPa)
Pressure tendency: 0.00 inches (0.1 hPa) higher than three hours ago
ob: KBYG 161153Z AUTO 34006KT 10SM FEW045 OVC110 12/09 A3007 RMK AO2 SLP138 70004 T01220094 10144 20106 53001
cycle: 12

Station Type Date Time Source
KBYG TAF UTC NOAA

Error!

Example: see airport list